Time;durP1;ratioP1;P1;durP2;ratioP2;P2;SDS_P1;SDS_P2;PMS_P1;PMS_P2;Temp;Humidity;BMP_temperature;BMP_pressure;BME280_temperature;BME280_humidity;BME280_pressure;Samples;Min_cycle;Max_cycle;Signal;HPM_P1;HPM_P2
2022/09/02 00:01:21;;;;;;;;;;;;;;;12.86;100.00;98604.44;1682034;83;21291;-87
2022/09/02 00:03:47;;;;;;;;;;;;;;;12.84;100.00;98602.39;1692216;83;24588;-87
2022/09/02 00:06:13;;;;;;;;;;;;;;;12.82;100.00;98599.03;1693909;83;20602;-88
2022/09/02 00:08:43;;;;;;;;;;;;;;;12.76;100.00;98596.91;1662075;83;20327;-88
2022/09/02 00:11:11;;;;;;;;;;;;;;;12.66;100.00;98599.00;1688178;83;22094;-88
2022/09/02 00:13:37;;;;;;;;;;;;;;;12.59;100.00;98593.41;1690039;83;26150;-88
2022/09/02 00:16:10;;;;;;;;;;;;;;;12.58;100.00;98593.88;1690678;83;24585;-88
2022/09/02 00:18:38;;;;;;;;;;;;;;;12.62;100.00;98592.31;1687667;83;20270;-88
2022/09/02 00:21:04;;;;;;;;;;;;;;;12.66;100.00;98593.27;1694491;83;24838;-88
2022/09/02 00:23:38;;;;;;;;;;;;;;;12.65;100.00;98594.73;1689355;83;22688;-87
2022/09/02 00:26:01;;;;;;;;;;;;;;;12.60;100.00;98595.05;1630741;84;26161;-88
2022/09/02 00:28:27;;;;;;;;;;;;;;;12.51;100.00;98586.09;1649605;84;24457;-88
2022/09/02 00:30:53;;;;;;;;;;;;;;;12.37;100.00;98586.77;1612054;88;20874;-88
2022/09/02 00:33:21;;;;;;;;;;;;;;;12.28;100.00;98586.13;1675739;84;20231;-87
2022/09/02 00:35:56;;;;;;;;;;;;;;;12.27;100.00;98583.16;1675708;85;22846;-88
2022/09/02 00:38:23;;;;;;;;;;;;;;;12.39;100.00;98575.19;1674449;85;26039;-88
2022/09/02 00:40:49;;;;;;;;;;;;;;;12.42;100.00;98572.83;1675299;85;24406;-88
2022/09/02 00:43:23;;;;;;;;;;;;;;;12.39;100.00;98569.11;1675105;85;33399;-88
2022/09/02 00:45:50;;;;;;;;;;;;;;;12.27;100.00;98573.98;1674998;84;24910;-88
2022/09/02 00:48:21;;;;;;;;;;;;;;;12.11;100.00;98564.59;1673001;85;22715;-88
2022/09/02 00:50:45;;;;;;;;;;;;;;;12.13;100.00;98573.67;1672389;84;26044;-88
2022/09/02 00:53:13;;;;;;;;;;;;;;;12.23;100.00;98570.73;1675523;85;20859;-88
2022/09/02 00:55:43;;;;;;;;;;;;;;;12.36;100.00;98561.47;1675517;84;20236;-87
2022/09/02 00:58:17;;;;;;;;;;;;;;;12.40;100.00;98562.91;1675024;84;24741;-87
2022/09/02 01:00:46;;;;;;;;;;;;;;;12.36;100.00;98562.78;1653230;84;20149;-88
2022/09/02 01:03:15;;;;;;;;;;;;;;;12.41;100.00;98556.71;1676279;85;26098;-87
2022/09/02 01:05:49;;;;;;;;;;;;;;;12.53;100.00;98561.05;1673092;85;24536;-87
2022/09/02 01:08:18;;;;;;;;;;;;;;;12.56;100.00;98556.86;1676042;85;20216;-88
2022/09/02 01:10:46;;;;;;;;;;;;;;;12.56;100.00;98562.11;1672795;85;24817;-88
2022/09/02 01:13:14;;;;;;;;;;;;;;;12.60;100.00;98571.42;1674871;85;22064;-87
2022/09/02 01:15:45;;;;;;;;;;;;;;;12.65;100.00;98563.22;1675722;85;25960;-88
2022/09/02 01:18:12;;;;;;;;;;;;;;;12.69;100.00;98566.80;1677840;85;24549;-88
2022/09/02 01:20:38;;;;;;;;;;;;;;;12.75;100.00;98564.19;1675885;85;20245;-87
2022/09/02 01:23:04;;;;;;;;;;;;;;;12.77;100.00;98567.52;1675374;85;20779;-87
2022/09/02 01:25:36;;;;;;;;;;;;;;;12.71;100.00;98564.07;1674328;85;21985;-87
2022/09/02 01:28:06;;;;;;;;;;;;;;;12.72;100.00;98568.34;1672974;84;26206;-88
2022/09/02 01:30:32;;;;;;;;;;;;;;;12.72;100.00;98569.66;1715244;82;25348;-88
2022/09/02 01:33:09;;;;;;;;;;;;;;;12.71;100.00;98569.32;1720495;81;20242;-88
2022/09/02 01:35:36;;;;;;;;;;;;;;;12.71;100.00;98570.63;1716299;83;24815;-88
2022/09/02 01:38:04;;;;;;;;;;;;;;;12.65;100.00;98567.16;1718259;83;22027;-88
2022/09/02 01:40:32;;;;;;;;;;;;;;;12.54;100.00;98569.28;1717610;83;26178;-88
2022/09/02 01:43:10;;;;;;;;;;;;;;;12.46;100.00;98569.02;1716017;81;24442;-88
2022/09/02 01:45:43;;;;;;;;;;;;;;;12.24;100.00;98567.63;1688038;83;20144;-88
2022/09/02 01:48:10;;;;;;;;;;;;;;;12.00;100.00;98563.23;1720242;83;24536;-88
2022/09/02 01:50:37;;;;;;;;;;;;;;;11.87;100.00;98566.41;1719008;82;21980;-87
2022/09/02 01:53:09;;;;;;;;;;;;;;;11.89;100.00;98562.38;1692832;83;21238;-87
2022/09/02 01:55:38;;;;;;;;;;;;;;;11.81;100.00;98565.55;1722522;81;25175;-87
2022/09/02 01:58:12;;;;;;;;;;;;;;;11.80;100.00;98561.72;1716270;83;20623;-87
2022/09/02 02:00:46;;;;;;;;;;;;;;;11.86;100.00;98554.25;1716443;83;25463;-87
2022/09/02 02:03:14;;;;;;;;;;;;;;;11.92;100.00;98556.89;1715740;81;21992;-87
2022/09/02 02:05:41;;;;;;;;;;;;;;;11.82;100.00;98558.52;1715897;83;26229;-87
2022/09/02 02:08:10;;;;;;;;;;;;;;;11.69;100.00;98551.98;1716410;82;24415;-87
2022/09/02 02:10:36;;;;;;;;;;;;;;;11.63;100.00;98558.97;1719372;82;20220;-87
2022/09/02 02:13:07;;;;;;;;;;;;;;;11.55;100.00;98556.08;1712930;81;24602;-88
2022/09/02 02:15:34;;;;;;;;;;;;;;;11.49;100.00;98554.73;1714143;83;21987;-87
2022/09/02 02:18:03;;;;;;;;;;;;;;;11.45;100.00;98558.53;1715868;83;26034;-87
2022/09/02 02:20:29;;;;;;;;;;;;;;;11.41;100.00;98553.59;1715725;83;24528;-87
2022/09/02 02:22:56;;;;;;;;;;;;;;;11.37;100.00;98553.45;1721600;81;20218;-87
2022/09/02 02:25:21;;;;;;;;;;;;;;;11.30;100.00;98554.35;1712149;81;24822;-87
2022/09/02 02:27:56;;;;;;;;;;;;;;;11.26;100.00;98551.13;1713153;81;20969;-87
2022/09/02 02:30:26;;;;;;;;;;;;;;;11.28;100.00;98556.27;1717586;83;26004;-88
2022/09/02 02:32:52;;;;;;;;;;;;;;;11.28;100.00;98554.95;1719316;81;25213;-88
2022/09/02 02:35:18;;;;;;;;;;;;;;;11.26;100.00;98555.05;1721954;81;20913;-88
2022/09/02 02:37:51;;;;;;;;;;;;;;;11.28;100.00;98549.72;1712817;83;25572;-87
2022/09/02 02:40:19;;;;;;;;;;;;;;;11.31;100.00;98550.33;1718734;81;22089;-88
2022/09/02 02:42:45;;;;;;;;;;;;;;;11.35;100.00;98550.94;1722839;81;26040;-87
2022/09/02 02:45:16;;;;;;;;;;;;;;;11.35;100.00;98544.88;1723435;83;20381;-87
2022/09/02 02:47:51;;;;;;;;;;;;;;;11.38;100.00;98551.20;1716033;81;20241;-87
2022/09/02 02:50:25;;;;;;;;;;;;;;;11.40;100.00;98545.39;1721509;81;24884;-88
2022/09/02 02:52:53;;;;;;;;;;;;;;;11.35;100.00;98543.58;1717270;82;23777;-87
2022/09/02 02:55:20;;;;;;;;;;;;;;;11.32;100.00;98544.14;1689285;83;25988;-88
2022/09/02 02:57:51;;;;;;;;;;;;;;;11.31;100.00;98542.94;1713265;81;25089;-88
2022/09/02 03:00:22;;;;;;;;;;;;;;;11.28;100.00;98553.65;1717347;83;20538;-88
2022/09/02 03:03:02;;;;;;;;;;;;;;;11.23;100.00;98546.59;1692786;83;24832;-88
2022/09/02 03:05:36;;;;;;;;;;;;;;;11.18;100.00;98543.45;1722390;81;22767;-88
2022/09/02 03:08:04;;;;;;;;;;;;;;;11.17;100.00;98549.64;1714029;82;26026;-87
2022/09/02 03:10:31;;;;;;;;;;;;;;;11.13;100.00;98545.06;1712414;83;24063;-87
2022/09/02 03:12:59;;;;;;;;;;;;;;;11.13;100.00;98548.16;1720893;82;20480;-87
2022/09/02 03:15:25;;;;;;;;;;;;;;;11.10;100.00;98543.14;1718467;82;24834;-87
2022/09/02 03:17:53;;;;;;;;;;;;;;;11.10;100.00;98546.60;1717973;82;21421;-88
2022/09/02 03:20:19;;;;;;;;;;;;;;;11.16;100.00;98530.93;1717922;81;26073;-88
2022/09/02 03:22:46;;;;;;;;;;;;;;;11.46;100.00;98552.31;1723296;81;24508;-88
2022/09/02 03:25:19;;;;;;;;;;;;;;;11.62;100.00;98552.89;1715478;82;20218;-88
2022/09/02 03:27:45;;;;;;;;;;;;;;;11.75;100.00;98550.26;1716796;83;24825;-88
2022/09/02 03:30:16;;;;;;;;;;;;;;;11.80;100.00;98548.14;1694688;83;22076;-87
2022/09/02 03:32:49;;;;;;;;;;;;;;;11.89;100.00;98552.70;1662291;85;26955;-87
2022/09/02 03:35:25;;;;;;;;;;;;;;;12.01;100.00;98553.59;1660921;85;24625;-88
2022/09/02 03:37:57;;;;;;;;;;;;;;;12.13;100.00;98560.56;1652212;84;20577;-88
2022/09/02 03:40:30;;;;;;;;;;;;;;;12.21;100.00;98557.38;1616360;88;20162;-88
2022/09/02 03:42:56;;;;;;;;;;;;;;;12.08;100.00;98556.12;1677078;83;22079;-88
2022/09/02 03:45:31;;;;;;;;;;;;;;;11.95;100.00;98551.41;1684017;84;21904;-87
2022/09/02 03:47:59;;;;;;;;;;;;;;;11.94;100.00;98558.47;1678270;84;25154;-88
2022/09/02 03:50:30;;;;;;;;;;;;;;;12.00;100.00;98554.56;1679400;84;20402;-88
2022/09/02 03:52:58;;;;;;;;;;;;;;;12.06;100.00;98558.02;1679301;84;24815;-87
2022/09/02 03:55:25;;;;;;;;;;;;;;;12.04;100.00;98558.16;1659914;84;22062;-88
2022/09/02 03:57:53;;;;;;;;;;;;;;;12.02;100.00;98556.58;1663896;85;25966;-88
2022/09/02 04:00:32;;;;;;;;;;;;;;;11.97;100.00;98556.92;1681669;83;24410;-88
2022/09/02 04:03:00;;;;;;;;;;;;;;;11.92;100.00;98562.98;1684198;84;20290;-87
2022/09/02 04:05:28;;;;;;;;;;;;;;;11.95;100.00;98561.44;1677986;83;24979;-88
2022/09/02 04:07:56;;;;;;;;;;;;;;;11.88;100.00;98562.85;1681814;83;22045;-88
2022/09/02 04:10:22;;;;;;;;;;;;;;;11.82;100.00;98559.83;1666653;84;25968;-88
2022/09/02 04:12:48;;;;;;;;;;;;;;;11.72;100.00;98553.08;1679350;84;24435;-88
2022/09/02 04:15:14;;;;;;;;;;;;;;;11.68;100.00;98556.38;1677753;84;20506;-88
2022/09/02 04:17:50;;;;;;;;;;;;;;;11.51;100.00;98555.44;1677868;83;20758;-87
2022/09/02 04:20:22;;;;;;;;;;;;;;;11.40;100.00;98559.30;1679034;84;21987;-88
2022/09/02 04:23:01;;;;;;;;;;;;;;;11.42;100.00;98557.89;1682238;84;26047;-88
2022/09/02 04:25:30;;;;;;;;;;;;;;;11.53;100.00;98564.52;1658827;85;24499;-88
2022/09/02 04:28:00;;;;;;;;;;;;;;;11.67;100.00;98555.20;1611940;88;20552;-87
2022/09/02 04:30:26;;;;;;;;;;;;;;;11.74;100.00;98552.52;1693182;83;24776;-87
2022/09/02 04:32:52;;;;;;;;;;;;;;;11.82;100.00;98551.50;1705724;82;20838;-88
2022/09/02 04:35:21;;;;;;;;;;;;;;;11.84;100.00;98553.52;1712635;83;20975;-87
2022/09/02 04:37:47;;;;;;;;;;;;;;;11.69;100.00;98546.73;1712544;83;24484;-87
2022/09/02 04:40:16;;;;;;;;;;;;;;;11.54;100.00;98558.33;1708939;83;20249;-87
2022/09/02 04:42:42;;;;;;;;;;;;;;;11.40;100.00;98552.75;1703921;82;24753;-87
2022/09/02 04:45:09;;;;;;;;;;;;;;;11.26;100.00;98555.53;1700750;83;20842;-87
2022/09/02 04:47:41;;;;;;;;;;;;;;;11.12;100.00;98554.36;1708020;83;26055;-87
2022/09/02 04:50:08;;;;;;;;;;;;;;;11.04;100.00;98552.27;1705978;83;24417;-87
2022/09/02 04:52:34;;;;;;;;;;;;;;;11.01;100.00;98562.13;1705232;83;20313;-87
2022/09/02 04:55:00;;;;;;;;;;;;;;;10.99;100.00;98562.70;1707296;83;20853;-87
2022/09/02 04:57:25;;;;;;;;;;;;;;;10.95;100.00;98559.94;1706799;83;20284;-87
2022/09/02 04:59:53;;;;;;;;;;;;;;;10.95;100.00;98559.46;1707764;83;20964;-87
2022/09/02 05:02:28;;;;;;;;;;;;;;;11.00;100.00;98556.52;1710712;83;24541;-87
2022/09/02 05:04:55;;;;;;;;;;;;;;;11.12;100.00;98553.05;1704004;83;20594;-87
2022/09/02 05:07:21;;;;;;;;;;;;;;;11.23;100.00;98557.91;1712216;83;24653;-87
2022/09/02 05:09:48;;;;;;;;;;;;;;;11.35;100.00;98558.80;1710539;83;21952;-87
2022/09/02 05:12:20;;;;;;;;;;;;;;;11.49;100.00;98551.27;1711525;83;26049;-87
2022/09/02 05:14:47;;;;;;;;;;;;;;;11.66;100.00;98553.53;1706541;83;24605;-87
2022/09/02 05:17:14;;;;;;;;;;;;;;;11.83;100.00;98556.27;1703478;83;20234;-87
2022/09/02 05:19:41;;;;;;;;;;;;;;;11.88;100.00;98553.67;1710628;83;24691;-87
2022/09/02 05:22:13;;;;;;;;;;;;;;;11.90;100.00;98554.38;1713391;83;22047;-87
2022/09/02 05:24:36;;;;;;;;;;;;;;;12.01;100.00;98551.80;1710131;83;26198;-88
2022/09/02 05:27:04;;;;;;;;;;;;;;;12.18;100.00;98558.90;1709823;82;24505;-88
2022/09/02 05:29:30;;;;;;;;;;;;;;;12.21;100.00;98554.75;1706203;83;20297;-87
2022/09/02 05:32:03;;;;;;;;;;;;;;;12.24;100.00;98554.52;1692773;83;20785;-87
2022/09/02 05:34:29;;;;;;;;;;;;;;;12.31;100.00;98555.73;1693925;82;22051;-87
2022/09/02 05:36:55;;;;;;;;;;;;;;;12.27;100.00;98549.05;1695288;82;26042;-86
2022/09/02 05:39:29;;;;;;;;;;;;;;;12.33;100.00;98549.91;1698795;82;24731;-87
2022/09/02 05:41:55;;;;;;;;;;;;;;;12.43;100.00;98545.64;1692884;82;20485;-87
2022/09/02 05:44:21;;;;;;;;;;;;;;;12.36;100.00;98548.35;1692536;82;20212;-87
2022/09/02 05:46:49;;;;;;;;;;;;;;;12.23;100.00;98552.36;1692534;82;20152;-87
2022/09/02 05:49:20;;;;;;;;;;;;;;;12.10;100.00;98552.93;1694352;82;26000;-87
2022/09/02 05:51:47;;;;;;;;;;;;;;;12.02;100.00;98552.17;1692363;83;24388;-87
2022/09/02 05:54:18;;;;;;;;;;;;;;;12.01;100.00;98559.67;1694297;82;20273;-87
2022/09/02 05:56:45;;;;;;;;;;;;;;;12.05;100.00;98553.75;1698127;82;24783;-87
2022/09/02 05:59:12;;;;;;;;;;;;;;;12.04;100.00;98555.53;1693557;82;21929;-87
2022/09/02 06:01:38;;;;;;;;;;;;;;;12.05;100.00;98560.30;1693714;83;26052;-87
2022/09/02 06:04:07;;;;;;;;;;;;;;;12.07;100.00;98555.76;1680952;83;20182;-87
2022/09/02 06:06:40;;;;;;;;;;;;;;;12.03;100.00;98556.95;1695369;83;20559;-87
2022/09/02 06:09:10;;;;;;;;;;;;;;;11.97;100.00;98559.55;1695574;82;25473;-87
2022/09/02 06:11:39;;;;;;;;;;;;;;;11.97;100.00;98559.55;1691075;83;21989;-87
2022/09/02 06:14:12;;;;;;;;;;;;;;;12.00;100.00;98561.13;1693046;82;26044;-87
2022/09/02 06:16:39;;;;;;;;;;;;;;;12.01;100.00;98555.73;1692630;84;24388;-88
2022/09/02 06:19:06;;;;;;;;;;;;;;;12.05;100.00;98561.62;1697880;82;20318;-88
2022/09/02 06:21:33;;;;;;;;;;;;;;;12.05;100.00;98558.52;1698753;82;24836;-88
2022/09/02 06:24:00;;;;;;;;;;;;;;;12.12;100.00;98561.03;1693926;83;21998;-87
2022/09/02 06:26:28;;;;;;;;;;;;;;;12.19;100.00;98560.58;1670488;84;22318;-87
2022/09/02 06:28:54;;;;;;;;;;;;;;;12.25;100.00;98564.91;1695494;82;24682;-87
2022/09/02 06:31:21;;;;;;;;;;;;;;;12.32;100.00;98553.48;1695498;82;20226;-88
2022/09/02 06:33:54;;;;;;;;;;;;;;;12.35;100.00;98555.86;1699274;83;24872;-87
2022/09/02 06:36:21;;;;;;;;;;;;;;;12.45;100.00;98560.30;1700915;83;22020;-87
2022/09/02 06:38:50;;;;;;;;;;;;;;;12.49;100.00;98563.05;1702400;83;26151;-87
2022/09/02 06:41:18;;;;;;;;;;;;;;;12.54;100.00;98561.41;1697590;83;24579;-88
2022/09/02 06:43:46;;;;;;;;;;;;;;;12.59;100.00;98567.14;1701715;83;20265;-88
2022/09/02 06:46:19;;;;;;;;;;;;;;;12.63;100.00;98567.27;1698677;83;24787;-88
2022/09/02 06:48:46;;;;;;;;;;;;;;;12.68;100.00;98565.59;1703816;83;22177;-88
2022/09/02 06:51:26;;;;;;;;;;;;;;;12.71;100.00;98564.88;1700719;83;26736;-88
2022/09/02 06:53:52;;;;;;;;;;;;;;;12.79;100.00;98564.30;1665783;84;25232;-88
2022/09/02 06:56:18;;;;;;;;;;;;;;;12.87;100.00;98566.69;1700177;82;20259;-88
2022/09/02 06:58:51;;;;;;;;;;;;;;;12.94;100.00;98559.17;1702871;82;20245;-88
2022/09/02 07:01:20;;;;;;;;;;;;;;;13.00;100.00;98562.17;1702977;83;22228;-88
2022/09/02 07:06:36;;;;;;;;;;;;;;;13.14;100.00;98558.52;1701754;83;25196;-88
2022/09/02 07:09:05;;;;;;;;;;;;;;;13.21;100.00;98549.17;1703757;83;20281;-88
2022/09/02 07:11:48;;;;;;;;;;;;;;;13.25;100.00;98549.78;1703171;82;25400;-88
2022/09/02 07:14:15;;;;;;;;;;;;;;;13.30;100.00;98554.20;1636934;85;21982;-88
2022/09/02 07:16:45;;;;;;;;;;;;;;;13.34;100.00;98547.73;1634659;83;27087;-87
2022/09/02 07:19:12;;;;;;;;;;;;;;;13.40;100.00;98553.34;1703798;82;24618;-88
2022/09/02 07:21:40;;;;;;;;;;;;;;;13.47;100.00;98554.18;1701863;82;20213;-88
2022/09/02 07:24:07;;;;;;;;;;;;;;;13.53;100.00;98557.12;1704188;83;24987;-88
2022/09/02 07:26:39;;;;;;;;;;;;;;;13.58;100.00;98562.85;1702190;83;22050;-88
2022/09/02 07:29:07;;;;;;;;;;;;;;;13.66;100.00;98561.77;1704934;82;26107;-88
2022/09/02 07:31:37;;;;;;;;;;;;;;;13.73;100.00;98556.86;1701532;82;25174;-88
2022/09/02 07:34:03;;;;;;;;;;;;;;;13.82;100.00;98561.37;1709938;83;20512;-88
2022/09/02 07:36:29;;;;;;;;;;;;;;;13.91;100.00;98565.88;1713592;83;24962;-88
2022/09/02 07:38:55;;;;;;;;;;;;;;;13.96;100.00;98562.89;1710161;82;20420;-88
2022/09/02 07:41:24;;;;;;;;;;;;;;;14.02;100.00;98563.72;1710675;83;21007;-88
2022/09/02 07:43:51;;;;;;;;;;;;;;;14.12;100.00;98562.84;1708869;82;24405;-87
2022/09/02 07:46:21;;;;;;;;;;;;;;;14.18;100.00;98562.81;1716024;82;20199;-88
2022/09/02 07:48:49;;;;;;;;;;;;;;;14.25;100.00;98558.69;1708330;83;24750;-88
2022/09/02 07:51:17;;;;;;;;;;;;;;;14.30;100.00;98560.45;1712783;82;22034;-88
2022/09/02 07:53:44;;;;;;;;;;;;;;;14.35;100.00;98559.59;1711188;83;25978;-88
2022/09/02 07:56:12;;;;;;;;;;;;;;;14.43;100.00;98561.63;1709447;83;25261;-87
2022/09/02 07:58:39;;;;;;;;;;;;;;;14.50;100.00;98558.37;1711229;82;20234;-88
2022/09/02 08:01:13;;;;;;;;;;;;;;;14.55;100.00;98556.19;1716683;83;24817;-88
2022/09/02 08:03:40;;;;;;;;;;;;;;;14.64;100.00;98558.51;1708802;83;22010;-88
2022/09/02 08:06:06;;;;;;;;;;;;;;;14.74;100.00;98559.87;1709049;83;26041;-88
2022/09/02 08:08:33;;;;;;;;;;;;;;;14.84;100.00;98556.81;1705549;83;24752;-88
2022/09/02 08:11:06;;;;;;;;;;;;;;;14.87;100.00;98542.91;1708080;82;20262;-88
2022/09/02 08:13:32;;;;;;;;;;;;;;;15.01;100.00;98557.05;1707309;83;24754;-87
2022/09/02 08:16:01;;;;;;;;;;;;;;;15.12;100.00;98555.28;1706845;82;20173;-88
2022/09/02 08:18:29;;;;;;;;;;;;;;;15.16;100.00;98555.39;1712813;83;25842;-88
2022/09/02 08:21:03;;;;;;;;;;;;;;;15.24;100.00;98551.59;1711597;83;20244;-88
2022/09/02 08:23:28;;;;;;;;;;;;;;;15.31;100.00;98550.09;1710819;83;20297;-88
2022/09/02 08:25:56;;;;;;;;;;;;;;;15.40;100.00;98544.84;1713155;82;24703;-88
2022/09/02 08:28:22;;;;;;;;;;;;;;;15.47;100.00;98549.09;1710290;83;22148;-88
2022/09/02 08:30:49;;;;;;;;;;;;;;;15.49;100.00;98542.70;1713012;83;20970;-88
2022/09/02 08:33:27;;;;;;;;;;;;;;;15.57;100.00;98547.83;1706474;82;25013;-88
2022/09/02 08:35:53;;;;;;;;;;;;;;;15.65;100.00;98551.95;1719932;81;20184;-88
2022/09/02 08:38:40;;;;;;;;;;;;;;;15.73;100.00;98541.54;1720765;83;20259;-88
2022/09/02 08:40:54;;;;;;;;;;;;;;;15.85;100.00;98550.53;1719684;81;22093;-88
2022/09/02 08:43:38;;;;;;;;;;;;;;;15.93;100.00;98548.50;1720520;81;20983;-88
2022/09/02 08:46:07;;;;;;;;;;;;;;;16.00;100.00;98549.62;1715011;81;24705;-87
2022/09/02 08:48:51;;;;;;;;;;;;;;;16.06;100.00;98545.11;1718677;82;20431;-88
2022/09/02 08:51:24;;;;;;;;;;;;;;;16.10;100.00;98546.98;1717047;83;24772;-88
2022/09/02 08:53:52;;;;;;;;;;;;;;;16.16;100.00;98543.30;1719537;81;21982;-88
2022/09/02 08:56:18;;;;;;;;;;;;;;;16.22;100.00;98537.95;1715675;82;26192;-88
2022/09/02 08:58:47;;;;;;;;;;;;;;;16.28;100.00;98536.91;1716029;82;25243;-88
2022/09/02 09:01:23;;;;;;;;;;;;;;;16.30;100.00;98533.66;1713795;83;20449;-88
2022/09/02 09:04:00;;;;;;;;;;;;;;;16.33;100.00;98525.44;1724588;81;24934;-88
2022/09/02 09:06:34;;;;;;;;;;;;;;;16.43;100.00;98521.94;1715939;81;22057;-88
2022/09/02 09:09:06;;;;;;;;;;;;;;;16.54;100.00;98521.78;1718126;82;26868;-88
2022/09/02 09:11:34;;;;;;;;;;;;;;;16.57;100.00;98524.16;1720785;82;24521;-88
2022/09/02 09:14:02;;;;;;;;;;;;;;;16.59;100.00;98527.50;1718795;81;20266;-88
2022/09/02 09:16:39;;;;;;;;;;;;;;;16.58;100.00;98521.86;1719506;83;25472;-88
2022/09/02 09:19:07;;;;;;;;;;;;;;;16.61;100.00;98520.27;1692680;83;22000;-89
2022/09/02 09:21:35;;;;;;;;;;;;;;;16.68;100.00;98517.41;1617369;86;23949;-88
2022/09/02 09:24:03;;;;;;;;;;;;;;;16.73;100.00;98518.66;1650882;86;20271;-88
2022/09/02 09:26:31;;;;;;;;;;;;;;;16.75;100.00;98518.48;1677974;83;20167;-88
2022/09/02 09:28:58;;;;;;;;;;;;;;;16.81;100.00;98519.23;1671752;84;24853;-88
2022/09/02 09:31:29;;;;;;;;;;;;;;;16.86;100.00;98518.80;1651433;86;22812;-87
2022/09/02 09:34:03;;;;;;;;;;;;;;;16.90;100.00;98516.23;1686863;84;26029;-88
2022/09/02 09:36:50;;;;;;;;;;;;;;;16.95;100.00;98517.95;1679958;84;24440;-88
2022/09/02 09:39:31;;;;;;;;;;;;;;;16.96;100.00;98516.49;1680218;83;20240;-88
2022/09/02 09:42:00;;;;;;;;;;;;;;;16.95;100.00;98517.95;1654120;84;24484;-88
2022/09/02 09:44:38;;;;;;;;;;;;;;;17.02;100.00;98507.95;1684266;83;22022;-87
2022/09/02 09:47:06;;;;;;;;;;;;;;;17.05;100.00;98509.00;1681107;85;26087;-88
2022/09/02 09:49:37;;;;;;;;;;;;;;;17.01;100.00;98499.70;1682530;83;24611;-88
2022/09/02 09:52:04;;;;;;;;;;;;;;;16.93;100.00;98499.58;1678290;83;20171;-88
2022/09/02 09:54:33;;;;;;;;;;;;;;;16.91;100.00;98500.72;1678515;84;24746;-88
2022/09/02 09:57:16;;;;;;;;;;;;;;;16.88;100.00;98499.19;1677779;83;22155;-88
2022/09/02 09:59:44;;;;;;;;;;;;;;;16.85;100.00;98496.84;1648032;84;26789;-88
2022/09/02 10:02:23;;;;;;;;;;;;;;;16.89;100.00;98502.18;1658696;85;24401;-88
2022/09/02 10:04:52;;;;;;;;;;;;;;;16.94;100.00;98493.80;1677996;85;20242;-88
2022/09/02 10:07:37;;;;;;;;;;;;;;;17.01;100.00;98494.90;1712145;83;25680;-88
2022/09/02 10:10:20;;;;;;;;;;;;;;;17.06;100.00;98492.16;1679008;84;21973;-88
2022/09/02 10:12:54;;;;;;;;;;;;;;;17.19;100.00;98481.22;1685247;84;27311;-88
2022/09/02 10:15:38;;;;;;;;;;;;;;;17.31;100.00;98476.08;1654188;85;24506;-88
2022/09/02 10:18:26;;;;;;;;;;;;;;;17.45;100.00;98470.78;1712014;83;20273;-87
2022/09/02 10:20:51;;;;;;;;;;;;;;;17.55;100.00;98476.84;1708784;82;24820;-88
2022/09/02 10:23:38;;;;;;;;;;;;;;;17.63;100.00;98468.16;1707642;83;22771;-87
2022/09/02 10:26:05;;;;;;;;;;;;;;;17.66;100.00;98466.07;1709483;83;25981;-88
2022/09/02 10:28:37;;;;;;;;;;;;;;;17.61;100.00;98464.37;1702222;83;24555;-88
2022/09/02 10:31:19;;;;;;;;;;;;;;;17.60;100.00;98476.42;1701561;83;20232;-88
2022/09/02 10:33:56;;;;;;;;;;;;;;;17.59;100.00;98470.26;1713457;83;24745;-87
2022/09/02 10:36:33;;;;;;;;;;;;;;;17.65;100.00;98468.86;1719507;83;23080;-88
2022/09/02 10:39:01;;;;;;;;;;;;;;;17.64;100.00;98465.38;1672154;83;26015;-88
2022/09/02 10:41:46;;;;;;;;;;;;;;;17.67;100.00;98458.47;1719431;81;24439;-87
2022/09/02 10:44:32;;;;;;;;;;;;;;;17.69;100.00;98464.42;1703512;83;20246;-88
2022/09/02 10:47:00;;;;;;;;;;;;;;;17.72;100.00;98464.63;1718086;82;24773;-87
2022/09/02 10:49:28;;;;;;;;;;;;;;;17.73;100.00;98472.40;1716908;81;22016;-88
2022/09/02 10:51:58;;;;;;;;;;;;;;;17.74;100.00;98473.23;1715190;83;26792;-88
2022/09/02 10:54:44;;;;;;;;;;;;;;;17.77;100.00;98471.14;1719088;83;24509;-88
2022/09/02 10:57:12;;;;;;;;;;;;;;;17.75;100.00;98475.74;1715755;83;20434;-88
2022/09/02 10:59:50;;;;;;;;;;;;;;;17.76;99.65;98472.12;1715583;83;25041;-88
2022/09/02 11:02:18;;;;;;;;;;;;;;;17.85;99.61;98472.52;1711237;82;22193;-88
2022/09/02 11:04:45;;;;;;;;;;;;;;;18.00;99.97;98474.65;1717516;83;26071;-87
2022/09/02 11:07:13;;;;;;;;;;;;;;;18.08;99.74;98465.43;1719533;81;24516;-88
2022/09/02 11:09:43;;;;;;;;;;;;;;;18.10;99.22;98458.17;1715779;82;20252;-87
2022/09/02 11:12:24;;;;;;;;;;;;;;;18.11;98.50;98459.33;1713103;83;24823;-88
2022/09/02 11:14:58;;;;;;;;;;;;;;;18.10;97.29;98457.69;1717666;82;21357;-87
2022/09/02 11:17:25;;;;;;;;;;;;;;;18.14;96.66;98450.25;1713764;83;26137;-88
2022/09/02 11:20:00;;;;;;;;;;;;;;;18.16;96.11;98452.27;1712040;81;24444;-88
2022/09/02 11:22:43;;;;;;;;;;;;;;;18.23;95.90;98449.31;1695467;83;20218;-88
2022/09/02 11:25:43;;;;;;;;;;;;;;;18.30;95.66;98446.39;1631570;86;24908;-88
2022/09/02 11:28:07;;;;;;;;;;;;;;;18.32;95.00;98452.38;1625981;86;22770;-88
2022/09/02 11:30:38;;;;;;;;;;;;;;;18.37;94.52;98454.91;1716060;81;26965;-88
2022/09/02 11:33:06;;;;;;;;;;;;;;;18.48;94.24;98452.48;1706934;83;24498;-88
2022/09/02 11:35:35;;;;;;;;;;;;;;;18.58;94.20;98456.38;1678727;85;20245;-88
2022/09/02 11:38:03;;;;;;;;;;;;;;;18.67;93.81;98458.91;1678509;84;24928;-87
2022/09/02 11:40:31;;;;;;;;;;;;;;;18.75;93.60;98454.98;1677875;84;21964;-88
2022/09/02 11:43:11;;;;;;;;;;;;;;;18.76;93.01;98451.84;1676039;83;27448;-87
2022/09/02 11:45:39;;;;;;;;;;;;;;;18.76;92.51;98446.02;1678764;84;24518;-87
2022/09/02 11:48:10;;;;;;;;;;;;;;;18.77;91.76;98455.64;1678307;83;20253;-88
2022/09/02 11:50:43;;;;;;;;;;;;;;;18.73;90.49;98449.50;1655167;85;20210;-87
2022/09/02 11:53:28;;;;;;;;;;;;;;;18.73;89.93;98446.35;1674756;85;21979;-88
2022/09/02 11:55:59;;;;;;;;;;;;;;;18.75;89.23;98441.73;1677098;84;26787;-89
2022/09/02 11:58:37;;;;;;;;;;;;;;;18.87;89.21;98443.62;1678715;83;24405;-87
2022/09/02 12:01:04;;;;;;;;;;;;;;;18.95;89.10;98445.45;1676171;83;20256;-88
2022/09/02 12:03:38;;;;;;;;;;;;;;;18.94;88.33;98445.11;1681613;83;25491;-88
2022/09/02 12:06:09;;;;;;;;;;;;;;;18.93;87.54;98444.28;1677397;85;22026;-88
2022/09/02 12:08:37;;;;;;;;;;;;;;;18.92;87.02;98436.50;1679993;83;26072;-88
2022/09/02 12:11:05;;;;;;;;;;;;;;;18.87;85.88;98432.17;1678683;85;24515;-87
2022/09/02 12:13:42;;;;;;;;;;;;;;;18.88;85.14;98439.95;1676352;85;20309;-88
2022/09/02 12:16:20;;;;;;;;;;;;;;;18.83;83.98;98432.97;1676707;85;24770;-88
2022/09/02 12:18:53;;;;;;;;;;;;;;;18.84;83.21;98425.84;1676347;85;22183;-88
2022/09/02 12:21:27;;;;;;;;;;;;;;;18.87;82.74;98426.88;1679027;83;26003;-88
2022/09/02 12:24:05;;;;;;;;;;;;;;;18.83;81.79;98417.55;1677960;85;24423;-88
2022/09/02 12:26:39;;;;;;;;;;;;;;;18.85;81.43;98419.56;1678593;85;20297;-87
2022/09/02 12:29:24;;;;;;;;;;;;;;;18.87;80.96;98412.28;1676915;85;24839;-88
2022/09/02 12:31:48;;;;;;;;;;;;;;;18.88;80.54;98414.75;1677591;83;22101;-88
2022/09/02 12:34:21;;;;;;;;;;;;;;;18.75;79.63;98413.06;1690254;82;25997;-88
2022/09/02 12:36:50;;;;;;;;;;;;;;;18.63;79.22;98413.83;1709902;83;24739;-88
2022/09/02 12:39:31;;;;;;;;;;;;;;;18.62;78.84;98404.70;1713791;83;20162;-88
2022/09/02 12:41:59;;;;;;;;;;;;;;;18.69;79.04;98405.73;1714143;82;24971;-88
2022/09/02 12:44:50;;;;;;;;;;;;;;;18.76;79.20;98403.59;1680826;84;22061;-88
2022/09/02 12:47:21;;;;;;;;;;;;;;;18.80;79.18;98397.50;1669381;85;26059;-88
2022/09/02 12:49:49;;;;;;;;;;;;;;;18.87;79.15;98399.03;1636904;86;24460;-88
2022/09/02 12:52:35;;;;;;;;;;;;;;;18.90;78.92;98396.04;1708397;83;20290;-88
2022/09/02 12:55:15;;;;;;;;;;;;;;;18.96;78.98;98400.22;1707871;83;24935;-88
2022/09/02 12:57:43;;;;;;;;;;;;;;;19.09;79.28;98399.24;1701005;83;23004;-88